sensor_id;sensor_type;location;lat;lon;timestamp;temperature;humidity
9437;DHT22;4757;59.334;18.034;2023-05-10T00:02:08;10.00;99.90
9437;DHT22;4757;59.334;18.034;2023-05-10T00:04:35;10.00;99.90
9437;DHT22;4757;59.334;18.034;2023-05-10T00:07:02;10.00;99.90
9437;DHT22;4757;59.334;18.034;2023-05-10T00:09:29;9.90;99.90
9437;DHT22;4757;59.334;18.034;2023-05-10T00:11:56;9.80;99.90
9437;DHT22;4757;59.334;18.034;2023-05-10T00:14:25;9.80;99.90
9437;DHT22;4757;59.334;18.034;2023-05-10T00:16:52;9.70;99.90
9437;DHT22;4757;59.334;18.034;2023-05-10T00:19:19;9.80;99.90
9437;DHT22;4757;59.334;18.034;2023-05-10T00:21:46;9.70;99.90
9437;DHT22;4757;59.334;18.034;2023-05-10T00:24:13;9.70;99.90
9437;DHT22;4757;59.334;18.034;2023-05-10T00:26:40;9.70;99.90
9437;DHT22;4757;59.334;18.034;2023-05-10T00:29:08;9.70;99.90
9437;DHT22;4757;59.334;18.034;2023-05-10T00:31:36;9.60;99.90
9437;DHT22;4757;59.334;18.034;2023-05-10T00:34:04;9.60;99.90
9437;DHT22;4757;59.334;18.034;2023-05-10T00:36:31;9.50;99.90
9437;DHT22;4757;59.334;18.034;2023-05-10T00:38:58;9.50;99.90
9437;DHT22;4757;59.334;18.034;2023-05-10T00:41:25;9.50;99.90
9437;DHT22;4757;59.334;18.034;2023-05-10T00:43:52;9.40;99.90
9437;DHT22;4757;59.334;18.034;2023-05-10T00:46:19;9.40;99.90
9437;DHT22;4757;59.334;18.034;2023-05-10T00:48:47;9.30;99.90
9437;DHT22;4757;59.334;18.034;2023-05-10T00:51:14;9.30;99.90
9437;DHT22;4757;59.334;18.034;2023-05-10T00:53:41;9.30;99.90
9437;DHT22;4757;59.334;18.034;2023-05-10T00:56:08;9.30;99.90
9437;DHT22;4757;59.334;18.034;2023-05-10T00:58:35;9.30;99.90
9437;DHT22;4757;59.334;18.034;2023-05-10T01:01:02;9.30;99.90
9437;DHT22;4757;59.334;18.034;2023-05-10T01:03:29;9.30;99.90
9437;DHT22;4757;59.334;18.034;2023-05-10T01:05:57;9.30;99.90
9437;DHT22;4757;59.334;18.034;2023-05-10T01:08:25;9.20;99.90
9437;DHT22;4757;59.334;18.034;2023-05-10T01:10:53;9.20;99.90
9437;DHT22;4757;59.334;18.034;2023-05-10T01:13:41;9.10;99.90
9437;DHT22;4757;59.334;18.034;2023-05-10T01:16:09;9.10;99.90
9437;DHT22;4757;59.334;18.034;2023-05-10T01:18:40;9.00;99.90
9437;DHT22;4757;59.334;18.034;2023-05-10T01:26:54;8.90;99.90
9437;DHT22;4757;59.334;18.034;2023-05-10T01:44:04;8.60;99.90
9437;DHT22;4757;59.334;18.034;2023-05-10T01:46:35;8.50;99.90
9437;DHT22;4757;59.334;18.034;2023-05-10T01:49:09;8.60;99.90
9437;DHT22;4757;59.334;18.034;2023-05-10T01:51:50;8.50;99.90
9437;DHT22;4757;59.334;18.034;2023-05-10T01:54:20;8.50;99.90
9437;DHT22;4757;59.334;18.034;2023-05-10T01:56:52;8.50;99.90
9437;DHT22;4757;59.334;18.034;2023-05-10T01:59:22;8.50;99.90
9437;DHT22;4757;59.334;18.034;2023-05-10T02:01:57;8.50;99.90
9437;DHT22;4757;59.334;18.034;2023-05-10T02:04:25;8.60;99.90
9437;DHT22;4757;59.334;18.034;2023-05-10T02:06:54;8.60;99.90
9437;DHT22;4757;59.334;18.034;2023-05-10T02:09:23;8.60;99.90
9437;DHT22;4757;59.334;18.034;2023-05-10T02:11:58;8.60;99.90
9437;DHT22;4757;59.334;18.034;2023-05-10T02:14:27;8.60;99.90
9437;DHT22;4757;59.334;18.034;2023-05-10T02:16:56;8.60;99.90
9437;DHT22;4757;59.334;18.034;2023-05-10T02:19:23;8.60;99.90
9437;DHT22;4757;59.334;18.034;2023-05-10T02:21:52;8.60;99.90
9437;DHT22;4757;59.334;18.034;2023-05-10T02:24:20;8.50;99.90
9437;DHT22;4757;59.334;18.034;2023-05-10T02:26:49;8.40;99.90
9437;DHT22;4757;59.334;18.034;2023-05-10T02:29:18;8.50;99.90
9437;DHT22;4757;59.334;18.034;2023-05-10T02:31:46;8.50;99.90
9437;DHT22;4757;59.334;18.034;2023-05-10T02:34:14;8.50;99.90
9437;DHT22;4757;59.334;18.034;2023-05-10T02:36:42;8.40;99.90
9437;DHT22;4757;59.334;18.034;2023-05-10T02:39:10;8.40;99.90
9437;DHT22;4757;59.334;18.034;2023-05-10T02:41:40;8.30;99.90
9437;DHT22;4757;59.334;18.034;2023-05-10T02:44:09;8.30;99.90
9437;DHT22;4757;59.334;18.034;2023-05-10T02:46:37;8.40;99.90
9437;DHT22;4757;59.334;18.034;2023-05-10T02:49:04;8.40;99.90
9437;DHT22;4757;59.334;18.034;2023-05-10T02:51:32;8.40;99.90
9437;DHT22;4757;59.334;18.034;2023-05-10T02:54:24;8.40;99.90
9437;DHT22;4757;59.334;18.034;2023-05-10T02:56:59;8.40;99.90
9437;DHT22;4757;59.334;18.034;2023-05-10T02:59:27;8.40;99.90
9437;DHT22;4757;59.334;18.034;2023-05-10T03:01:54;8.40;99.90
9437;DHT22;4757;59.334;18.034;2023-05-10T03:04:21;8.40;99.90
9437;DHT22;4757;59.334;18.034;2023-05-10T03:06:48;8.40;99.90
9437;DHT22;4757;59.334;18.034;2023-05-10T03:09:15;8.40;99.90
9437;DHT22;4757;59.334;18.034;2023-05-10T03:17:47;8.40;99.90
9437;DHT22;4757;59.334;18.034;2023-05-10T03:20:25;8.50;99.90
9437;DHT22;4757;59.334;18.034;2023-05-10T03:23:02;8.50;99.90
9437;DHT22;4757;59.334;18.034;2023-05-10T03:25:31;8.60;99.90
9437;DHT22;4757;59.334;18.034;2023-05-10T03:28:01;8.60;99.90
9437;DHT22;4757;59.334;18.034;2023-05-10T03:30:29;8.60;99.90
9437;DHT22;4757;59.334;18.034;2023-05-10T03:32:57;8.70;99.90
9437;DHT22;4757;59.334;18.034;2023-05-10T03:35:24;8.70;99.90
9437;DHT22;4757;59.334;18.034;2023-05-10T03:37:51;8.70;99.90
9437;DHT22;4757;59.334;18.034;2023-05-10T03:40:18;8.70;99.90
9437;DHT22;4757;59.334;18.034;2023-05-10T03:42:45;8.80;99.90
9437;DHT22;4757;59.334;18.034;2023-05-10T03:45:12;8.80;99.90
9437;DHT22;4757;59.334;18.034;2023-05-10T03:47:39;8.90;99.90
9437;DHT22;4757;59.334;18.034;2023-05-10T03:50:06;8.90;99.90
9437;DHT22;4757;59.334;18.034;2023-05-10T03:52:33;8.90;99.90
9437;DHT22;4757;59.334;18.034;2023-05-10T03:55:00;8.80;99.90
9437;DHT22;4757;59.334;18.034;2023-05-10T03:57:29;8.90;99.90
9437;DHT22;4757;59.334;18.034;2023-05-10T03:59:56;8.90;99.90
9437;DHT22;4757;59.334;18.034;2023-05-10T04:02:23;8.90;99.90
9437;DHT22;4757;59.334;18.034;2023-05-10T04:04:50;9.00;99.90
9437;DHT22;4757;59.334;18.034;2023-05-10T04:07:17;9.10;99.90
9437;DHT22;4757;59.334;18.034;2023-05-10T04:09:44;9.10;99.90
9437;DHT22;4757;59.334;18.034;2023-05-10T04:12:11;9.20;99.90
9437;DHT22;4757;59.334;18.034;2023-05-10T04:14:38;9.20;99.90
9437;DHT22;4757;59.334;18.034;2023-05-10T04:17:05;9.30;99.90
9437;DHT22;4757;59.334;18.034;2023-05-10T04:19:33;9.30;99.90
9437;DHT22;4757;59.334;18.034;2023-05-10T04:22:01;9.40;99.90
9437;DHT22;4757;59.334;18.034;2023-05-10T04:24:28;9.50;99.90
9437;DHT22;4757;59.334;18.034;2023-05-10T04:26:55;9.60;99.90
9437;DHT22;4757;59.334;18.034;2023-05-10T04:29:23;9.60;99.90
9437;DHT22;4757;59.334;18.034;2023-05-10T04:31:50;9.70;99.90
9437;DHT22;4757;59.334;18.034;2023-05-10T04:34:17;9.80;99.90
9437;DHT22;4757;59.334;18.034;2023-05-10T04:36:45;9.90;99.90
9437;DHT22;4757;59.334;18.034;2023-05-10T04:39:12;10.00;99.90
9437;DHT22;4757;59.334;18.034;2023-05-10T04:41:40;10.00;99.90
9437;DHT22;4757;59.334;18.034;2023-05-10T04:44:07;10.10;99.90
9437;DHT22;4757;59.334;18.034;2023-05-10T04:46:34;10.20;99.90
9437;DHT22;4757;59.334;18.034;2023-05-10T04:49:01;10.30;99.90
9437;DHT22;4757;59.334;18.034;2023-05-10T04:51:28;10.40;99.90
9437;DHT22;4757;59.334;18.034;2023-05-10T04:53:55;10.50;99.90
9437;DHT22;4757;59.334;18.034;2023-05-10T04:56:32;10.60;99.90
9437;DHT22;4757;59.334;18.034;2023-05-10T04:58:59;10.60;99.90
9437;DHT22;4757;59.334;18.034;2023-05-10T05:01:26;10.80;99.90
9437;DHT22;4757;59.334;18.034;2023-05-10T05:03:54;10.90;99.90
9437;DHT22;4757;59.334;18.034;2023-05-10T05:06:21;10.90;99.90
9437;DHT22;4757;59.334;18.034;2023-05-10T05:08:48;11.00;99.90
9437;DHT22;4757;59.334;18.034;2023-05-10T05:11:17;11.10;99.90
9437;DHT22;4757;59.334;18.034;2023-05-10T05:13:44;11.10;99.90
9437;DHT22;4757;59.334;18.034;2023-05-10T05:16:11;11.20;99.90
9437;DHT22;4757;59.334;18.034;2023-05-10T05:18:38;11.30;99.90
9437;DHT22;4757;59.334;18.034;2023-05-10T05:21:15;11.40;99.90
9437;DHT22;4757;59.334;18.034;2023-05-10T05:23:43;11.50;99.90
9437;DHT22;4757;59.334;18.034;2023-05-10T05:26:10;11.60;99.90
9437;DHT22;4757;59.334;18.034;2023-05-10T05:28:38;11.70;99.90
9437;DHT22;4757;59.334;18.034;2023-05-10T05:31:05;11.70;99.90
9437;DHT22;4757;59.334;18.034;2023-05-10T05:33:33;11.80;99.90
9437;DHT22;4757;59.334;18.034;2023-05-10T05:36:04;11.90;99.90
9437;DHT22;4757;59.334;18.034;2023-05-10T05:38:32;11.90;99.90
9437;DHT22;4757;59.334;18.034;2023-05-10T05:40:59;12.10;99.90
9437;DHT22;4757;59.334;18.034;2023-05-10T05:43:26;12.10;99.90
9437;DHT22;4757;59.334;18.034;2023-05-10T05:45:53;12.10;99.90
9437;DHT22;4757;59.334;18.034;2023-05-10T05:48:20;12.20;99.90
9437;DHT22;4757;59.334;18.034;2023-05-10T05:50:47;12.30;99.90
9437;DHT22;4757;59.334;18.034;2023-05-10T05:53:16;12.50;99.90
9437;DHT22;4757;59.334;18.034;2023-05-10T05:55:57;12.50;99.90
9437;DHT22;4757;59.334;18.034;2023-05-10T05:58:25;12.50;99.90
9437;DHT22;4757;59.334;18.034;2023-05-10T06:00:53;12.50;99.90
9437;DHT22;4757;59.334;18.034;2023-05-10T06:03:20;12.50;99.90
9437;DHT22;4757;59.334;18.034;2023-05-10T06:05:48;12.70;99.90
9437;DHT22;4757;59.334;18.034;2023-05-10T06:08:15;12.80;99.90
9437;DHT22;4757;59.334;18.034;2023-05-10T06:10:42;13.00;99.90
9437;DHT22;4757;59.334;18.034;2023-05-10T06:13:09;13.10;99.90
9437;DHT22;4757;59.334;18.034;2023-05-10T06:15:36;13.10;99.90
9437;DHT22;4757;59.334;18.034;2023-05-10T06:18:03;13.20;99.90
9437;DHT22;4757;59.334;18.034;2023-05-10T06:20:30;13.10;99.90
9437;DHT22;4757;59.334;18.034;2023-05-10T06:22:58;13.30;99.90
9437;DHT22;4757;59.334;18.034;2023-05-10T06:25:25;13.30;99.90
9437;DHT22;4757;59.334;18.034;2023-05-10T06:27:52;13.50;99.90
9437;DHT22;4757;59.334;18.034;2023-05-10T06:30:25;13.50;99.90
9437;DHT22;4757;59.334;18.034;2023-05-10T06:32:56;13.60;99.90
9437;DHT22;4757;59.334;18.034;2023-05-10T06:35:23;13.90;99.90
9437;DHT22;4757;59.334;18.034;2023-05-10T06:37:51;14.00;99.90
9437;DHT22;4757;59.334;18.034;2023-05-10T06:40:18;14.60;99.90
9437;DHT22;4757;59.334;18.034;2023-05-10T06:42:46;15.40;99.90
9437;DHT22;4757;59.334;18.034;2023-05-10T06:45:14;15.70;99.10
9437;DHT22;4757;59.334;18.034;2023-05-10T06:47:42;16.10;98.70
9437;DHT22;4757;59.334;18.034;2023-05-10T06:50:10;16.80;98.30
9437;DHT22;4757;59.334;18.034;2023-05-10T06:52:40;16.60;98.30
9437;DHT22;4757;59.334;18.034;2023-05-10T06:55:08;16.20;99.00
9437;DHT22;4757;59.334;18.034;2023-05-10T06:57:35;17.20;98.30
9437;DHT22;4757;59.334;18.034;2023-05-10T07:00:03;17.40;97.20
9437;DHT22;4757;59.334;18.034;2023-05-10T07:02:39;18.40;96.70
9437;DHT22;4757;59.334;18.034;2023-05-10T07:05:06;19.00;96.10
9437;DHT22;4757;59.334;18.034;2023-05-10T07:07:33;19.40;95.60
9437;DHT22;4757;59.334;18.034;2023-05-10T07:10:04;18.70;95.90
9437;DHT22;4757;59.334;18.034;2023-05-10T07:12:31;18.00;95.90
9437;DHT22;4757;59.334;18.034;2023-05-10T07:14:58;18.30;95.90
9437;DHT22;4757;59.334;18.034;2023-05-10T07:17:26;17.50;96.20
9437;DHT22;4757;59.334;18.034;2023-05-10T07:19:53;17.90;95.90
9437;DHT22;4757;59.334;18.034;2023-05-10T07:22:20;17.90;95.90
9437;DHT22;4757;59.334;18.034;2023-05-10T07:24:47;18.50;94.90
9437;DHT22;4757;59.334;18.034;2023-05-10T07:27:14;18.40;94.90
9437;DHT22;4757;59.334;18.034;2023-05-10T07:29:41;19.00;94.40
9437;DHT22;4757;59.334;18.034;2023-05-10T07:32:08;18.60;94.60
9437;DHT22;4757;59.334;18.034;2023-05-10T07:34:36;17.90;95.10
9437;DHT22;4757;59.334;18.034;2023-05-10T07:37:03;18.60;94.10
9437;DHT22;4757;59.334;18.034;2023-05-10T07:39:32;18.90;94.10
9437;DHT22;4757;59.334;18.034;2023-05-10T07:41:59;19.10;94.40
9437;DHT22;4757;59.334;18.034;2023-05-10T07:44:26;20.10;93.70
9437;DHT22;4757;59.334;18.034;2023-05-10T07:46:53;20.20;92.70
9437;DHT22;4757;59.334;18.034;2023-05-10T07:49:20;20.90;92.00
9437;DHT22;4757;59.334;18.034;2023-05-10T07:51:47;20.20;91.70
9437;DHT22;4757;59.334;18.034;2023-05-10T07:54:17;19.50;91.90
9437;DHT22;4757;59.334;18.034;2023-05-10T07:56:45;19.20;92.30
9437;DHT22;4757;59.334;18.034;2023-05-10T07:59:17;19.20;92.60
9437;DHT22;4757;59.334;18.034;2023-05-10T08:01:46;19.00;92.30
9437;DHT22;4757;59.334;18.034;2023-05-10T08:04:13;19.90;92.20
9437;DHT22;4757;59.334;18.034;2023-05-10T08:06:40;19.70;92.00
9437;DHT22;4757;59.334;18.034;2023-05-10T08:09:08;20.50;91.60
9437;DHT22;4757;59.334;18.034;2023-05-10T08:11:35;19.50;90.30
9437;DHT22;4757;59.334;18.034;2023-05-10T08:14:02;19.40;90.70
9437;DHT22;4757;59.334;18.034;2023-05-10T08:16:29;20.00;91.20
9437;DHT22;4757;59.334;18.034;2023-05-10T08:18:57;20.10;91.30
9437;DHT22;4757;59.334;18.034;2023-05-10T08:21:24;20.80;91.20
9437;DHT22;4757;59.334;18.034;2023-05-10T08:23:51;21.70;90.00
9437;DHT22;4757;59.334;18.034;2023-05-10T08:26:18;22.60;87.70
9437;DHT22;4757;59.334;18.034;2023-05-10T08:28:45;21.70;86.50
9437;DHT22;4757;59.334;18.034;2023-05-10T08:31:12;22.30;85.50
9437;DHT22;4757;59.334;18.034;2023-05-10T08:33:39;22.30;84.70
9437;DHT22;4757;59.334;18.034;2023-05-10T08:36:10;22.00;83.90
9437;DHT22;4757;59.334;18.034;2023-05-10T08:38:37;22.10;84.40
9437;DHT22;4757;59.334;18.034;2023-05-10T08:41:05;22.20;84.60
9437;DHT22;4757;59.334;18.034;2023-05-10T08:43:35;22.30;84.80
9437;DHT22;4757;59.334;18.034;2023-05-10T08:46:03;22.80;84.00
9437;DHT22;4757;59.334;18.034;2023-05-10T08:48:34;23.00;82.80
9437;DHT22;4757;59.334;18.034;2023-05-10T08:51:03;23.30;82.60
9437;DHT22;4757;59.334;18.034;2023-05-10T08:53:31;22.90;82.00
9437;DHT22;4757;59.334;18.034;2023-05-10T08:56:01;23.00;82.50
9437;DHT22;4757;59.334;18.034;2023-05-10T08:58:29;23.10;83.70
9437;DHT22;4757;59.334;18.034;2023-05-10T09:00:57;23.10;83.10
9437;DHT22;4757;59.334;18.034;2023-05-10T09:03:24;22.90;83.50
9437;DHT22;4757;59.334;18.034;2023-05-10T09:05:51;21.00;85.20
9437;DHT22;4757;59.334;18.034;2023-05-10T09:08:20;21.00;85.70
9437;DHT22;4757;59.334;18.034;2023-05-10T09:10:48;21.90;85.40
9437;DHT22;4757;59.334;18.034;2023-05-10T09:13:15;22.40;84.10
9437;DHT22;4757;59.334;18.034;2023-05-10T09:15:45;23.20;84.80
9437;DHT22;4757;59.334;18.034;2023-05-10T09:18:12;23.50;83.30
9437;DHT22;4757;59.334;18.034;2023-05-10T09:20:40;21.70;84.80
9437;DHT22;4757;59.334;18.034;2023-05-10T09:23:08;20.60;84.70
9437;DHT22;4757;59.334;18.034;2023-05-10T09:25:35;21.20;83.60
9437;DHT22;4757;59.334;18.034;2023-05-10T09:28:07;20.90;82.90
9437;DHT22;4757;59.334;18.034;2023-05-10T09:30:35;21.50;83.90
9437;DHT22;4757;59.334;18.034;2023-05-10T09:33:02;21.40;83.10
9437;DHT22;4757;59.334;18.034;2023-05-10T09:35:32;20.80;82.80
9437;DHT22;4757;59.334;18.034;2023-05-10T09:38:05;20.50;82.80
9437;DHT22;4757;59.334;18.034;2023-05-10T09:40:33;21.80;83.00
9437;DHT22;4757;59.334;18.034;2023-05-10T09:43:05;22.70;79.90
9437;DHT22;4757;59.334;18.034;2023-05-10T09:45:34;22.50;80.40
9437;DHT22;4757;59.334;18.034;2023-05-10T09:48:04;22.90;80.00
9437;DHT22;4757;59.334;18.034;2023-05-10T09:50:33;21.60;82.00
9437;DHT22;4757;59.334;18.034;2023-05-10T09:53:02;22.70;80.20
9437;DHT22;4757;59.334;18.034;2023-05-10T09:55:41;23.10;79.70
9437;DHT22;4757;59.334;18.034;2023-05-10T09:58:12;22.50;80.30
9437;DHT22;4757;59.334;18.034;2023-05-10T10:00:43;22.80;80.10
9437;DHT22;4757;59.334;18.034;2023-05-10T10:03:19;22.00;79.90
9437;DHT22;4757;59.334;18.034;2023-05-10T10:05:48;21.60;80.10
9437;DHT22;4757;59.334;18.034;2023-05-10T10:08:16;21.60;79.50
9437;DHT22;4757;59.334;18.034;2023-05-10T10:10:43;22.10;79.40
9437;DHT22;4757;59.334;18.034;2023-05-10T10:13:14;23.10;78.80
9437;DHT22;4757;59.334;18.034;2023-05-10T10:15:42;23.50;78.50
9437;DHT22;4757;59.334;18.034;2023-05-10T10:18:14;22.50;77.90
9437;DHT22;4757;59.334;18.034;2023-05-10T10:20:44;20.80;79.20
9437;DHT22;4757;59.334;18.034;2023-05-10T10:23:12;21.00;80.10
9437;DHT22;4757;59.334;18.034;2023-05-10T10:25:43;21.10;79.50
9437;DHT22;4757;59.334;18.034;2023-05-10T10:28:31;20.60;80.50
9437;DHT22;4757;59.334;18.034;2023-05-10T10:31:11;21.50;80.80
9437;DHT22;4757;59.334;18.034;2023-05-10T10:33:53;21.20;80.60
9437;DHT22;4757;59.334;18.034;2023-05-10T10:36:22;21.10;80.20
9437;DHT22;4757;59.334;18.034;2023-05-10T10:38:59;20.40;80.70
9437;DHT22;4757;59.334;18.034;2023-05-10T10:41:35;21.00;81.60
9437;DHT22;4757;59.334;18.034;2023-05-10T10:46:59;21.10;80.40
9437;DHT22;4757;59.334;18.034;2023-05-10T10:49:28;20.70;80.70
9437;DHT22;4757;59.334;18.034;2023-05-10T10:52:25;21.20;80.70
9437;DHT22;4757;59.334;18.034;2023-05-10T10:55:14;22.00;79.50
9437;DHT22;4757;59.334;18.034;2023-05-10T11:08:26;21.20;79.60
9437;DHT22;4757;59.334;18.034;2023-05-10T11:13:40;23.20;76.40
9437;DHT22;4757;59.334;18.034;2023-05-10T11:16:17;23.50;77.10
9437;DHT22;4757;59.334;18.034;2023-05-10T11:19:05;21.80;77.10
9437;DHT22;4757;59.334;18.034;2023-05-10T11:21:44;21.50;77.90
9437;DHT22;4757;59.334;18.034;2023-05-10T11:24:31;21.70;77.90
9437;DHT22;4757;59.334;18.034;2023-05-10T11:27:00;21.50;77.10
9437;DHT22;4757;59.334;18.034;2023-05-10T11:29:28;21.70;76.60
9437;DHT22;4757;59.334;18.034;2023-05-10T11:31:58;20.40;77.10
9437;DHT22;4757;59.334;18.034;2023-05-10T11:34:29;20.40;78.20
9437;DHT22;4757;59.334;18.034;2023-05-10T11:36:57;20.30;79.50
9437;DHT22;4757;59.334;18.034;2023-05-10T11:39:31;20.40;78.00
9437;DHT22;4757;59.334;18.034;2023-05-10T11:41:58;20.60;78.80
9437;DHT22;4757;59.334;18.034;2023-05-10T11:44:35;21.60;76.40
9437;DHT22;4757;59.334;18.034;2023-05-10T11:47:02;21.30;78.20
9437;DHT22;4757;59.334;18.034;2023-05-10T11:49:30;20.30;78.60
9437;DHT22;4757;59.334;18.034;2023-05-10T11:52:06;21.50;77.90
9437;DHT22;4757;59.334;18.034;2023-05-10T11:54:34;21.70;78.60
9437;DHT22;4757;59.334;18.034;2023-05-10T11:57:04;21.00;77.80
9437;DHT22;4757;59.334;18.034;2023-05-10T11:59:31;21.30;77.70
9437;DHT22;4757;59.334;18.034;2023-05-10T12:02:01;21.60;78.40
9437;DHT22;4757;59.334;18.034;2023-05-10T12:04:28;21.40;78.10
9437;DHT22;4757;59.334;18.034;2023-05-10T12:06:56;20.70;78.50
9437;DHT22;4757;59.334;18.034;2023-05-10T12:09:23;20.40;78.90
9437;DHT22;4757;59.334;18.034;2023-05-10T12:12:09;20.00;80.30
9437;DHT22;4757;59.334;18.034;2023-05-10T12:14:37;20.50;79.90
9437;DHT22;4757;59.334;18.034;2023-05-10T12:17:05;20.10;80.70
9437;DHT22;4757;59.334;18.034;2023-05-10T12:19:38;20.70;80.90
9437;DHT22;4757;59.334;18.034;2023-05-10T12:22:06;21.70;79.40
9437;DHT22;4757;59.334;18.034;2023-05-10T12:24:36;21.50;79.70
9437;DHT22;4757;59.334;18.034;2023-05-10T12:27:05;21.80;78.80
9437;DHT22;4757;59.334;18.034;2023-05-10T12:29:34;20.70;80.00
9437;DHT22;4757;59.334;18.034;2023-05-10T12:32:02;21.00;79.70
9437;DHT22;4757;59.334;18.034;2023-05-10T12:34:33;21.10;80.60
9437;DHT22;4757;59.334;18.034;2023-05-10T12:37:04;22.30;78.30
9437;DHT22;4757;59.334;18.034;2023-05-10T12:39:42;21.80;78.20
9437;DHT22;4757;59.334;18.034;2023-05-10T12:42:10;20.50;78.90
9437;DHT22;4757;59.334;18.034;2023-05-10T12:44:37;20.70;80.10
9437;DHT22;4757;59.334;18.034;2023-05-10T12:47:04;21.20;79.60
9437;DHT22;4757;59.334;18.034;2023-05-10T12:49:31;20.70;80.20
9437;DHT22;4757;59.334;18.034;2023-05-10T12:51:58;21.30;79.10
9437;DHT22;4757;59.334;18.034;2023-05-10T12:54:26;20.10;79.70
9437;DHT22;4757;59.334;18.034;2023-05-10T12:56:53;19.90;80.30
9437;DHT22;4757;59.334;18.034;2023-05-10T12:59:20;21.10;80.50
9437;DHT22;4757;59.334;18.034;2023-05-10T13:01:47;20.90;79.50
9437;DHT22;4757;59.334;18.034;2023-05-10T13:04:14;20.90;79.00
9437;DHT22;4757;59.334;18.034;2023-05-10T13:06:41;20.60;79.10
9437;DHT22;4757;59.334;18.034;2023-05-10T13:09:08;20.40;80.10
9437;DHT22;4757;59.334;18.034;2023-05-10T13:11:35;20.80;79.80
9437;DHT22;4757;59.334;18.034;2023-05-10T13:14:03;21.10;79.10
9437;DHT22;4757;59.334;18.034;2023-05-10T13:16:30;20.90;78.50
9437;DHT22;4757;59.334;18.034;2023-05-10T13:18:57;20.70;78.70
9437;DHT22;4757;59.334;18.034;2023-05-10T13:21:28;20.50;79.20
9437;DHT22;4757;59.334;18.034;2023-05-10T13:23:55;20.60;78.90
9437;DHT22;4757;59.334;18.034;2023-05-10T13:26:22;20.80;78.50
9437;DHT22;4757;59.334;18.034;2023-05-10T13:28:49;20.50;78.90
9437;DHT22;4757;59.334;18.034;2023-05-10T13:31:18;20.80;79.10
9437;DHT22;4757;59.334;18.034;2023-05-10T13:33:45;20.30;79.70
9437;DHT22;4757;59.334;18.034;2023-05-10T13:36:12;19.90;80.10
9437;DHT22;4757;59.334;18.034;2023-05-10T13:38:39;20.00;80.20
9437;DHT22;4757;59.334;18.034;2023-05-10T13:41:06;20.20;79.50
9437;DHT22;4757;59.334;18.034;2023-05-10T13:43:33;19.90;80.70
9437;DHT22;4757;59.334;18.034;2023-05-10T13:46:01;20.20;81.20
9437;DHT22;4757;59.334;18.034;2023-05-10T13:48:28;20.70;80.70
9437;DHT22;4757;59.334;18.034;2023-05-10T13:50:55;21.00;80.50
9437;DHT22;4757;59.334;18.034;2023-05-10T13:53:22;20.70;80.10
9437;DHT22;4757;59.334;18.034;2023-05-10T13:55:49;20.30;80.20
9437;DHT22;4757;59.334;18.034;2023-05-10T13:58:17;20.00;81.50
9437;DHT22;4757;59.334;18.034;2023-05-10T14:00:44;19.50;81.60
9437;DHT22;4757;59.334;18.034;2023-05-10T14:03:14;19.80;82.00
9437;DHT22;4757;59.334;18.034;2023-05-10T14:05:41;20.00;82.30
9437;DHT22;4757;59.334;18.034;2023-05-10T14:08:08;19.90;82.10
9437;DHT22;4757;59.334;18.034;2023-05-10T14:10:39;20.00;81.90
9437;DHT22;4757;59.334;18.034;2023-05-10T14:13:06;20.00;80.50
9437;DHT22;4757;59.334;18.034;2023-05-10T14:15:33;20.10;81.20
9437;DHT22;4757;59.334;18.034;2023-05-10T14:18:03;19.60;80.20
9437;DHT22;4757;59.334;18.034;2023-05-10T14:20:30;19.50;81.00
9437;DHT22;4757;59.334;18.034;2023-05-10T14:22:59;19.30;82.30
9437;DHT22;4757;59.334;18.034;2023-05-10T14:25:26;19.80;80.00
9437;DHT22;4757;59.334;18.034;2023-05-10T14:27:53;19.70;80.40
9437;DHT22;4757;59.334;18.034;2023-05-10T14:30:21;19.40;80.30
9437;DHT22;4757;59.334;18.034;2023-05-10T14:32:48;19.70;79.00
9437;DHT22;4757;59.334;18.034;2023-05-10T14:35:15;19.70;79.50
9437;DHT22;4757;59.334;18.034;2023-05-10T14:37:45;19.40;80.20
9437;DHT22;4757;59.334;18.034;2023-05-10T14:40:12;19.50;79.60
9437;DHT22;4757;59.334;18.034;2023-05-10T14:42:42;19.60;79.70
9437;DHT22;4757;59.334;18.034;2023-05-10T14:45:10;19.50;80.30
9437;DHT22;4757;59.334;18.034;2023-05-10T14:47:37;19.70;79.70
9437;DHT22;4757;59.334;18.034;2023-05-10T14:50:05;20.10;78.80
9437;DHT22;4757;59.334;18.034;2023-05-10T14:52:32;19.20;79.90
9437;DHT22;4757;59.334;18.034;2023-05-10T14:55:00;19.30;80.00
9437;DHT22;4757;59.334;18.034;2023-05-10T14:57:28;19.50;79.00
9437;DHT22;4757;59.334;18.034;2023-05-10T14:59:58;20.10;79.80
9437;DHT22;4757;59.334;18.034;2023-05-10T15:02:25;19.90;78.90
9437;DHT22;4757;59.334;18.034;2023-05-10T15:04:53;19.40;79.20
9437;DHT22;4757;59.334;18.034;2023-05-10T15:07:20;19.60;78.70
9437;DHT22;4757;59.334;18.034;2023-05-10T15:09:47;19.90;79.00
9437;DHT22;4757;59.334;18.034;2023-05-10T15:12:14;20.20;78.80
9437;DHT22;4757;59.334;18.034;2023-05-10T15:14:41;19.50;79.40
9437;DHT22;4757;59.334;18.034;2023-05-10T15:17:08;19.50;79.50
9437;DHT22;4757;59.334;18.034;2023-05-10T15:19:38;19.20;79.40
9437;DHT22;4757;59.334;18.034;2023-05-10T15:22:05;18.80;79.00
9437;DHT22;4757;59.334;18.034;2023-05-10T15:24:32;18.80;78.40
9437;DHT22;4757;59.334;18.034;2023-05-10T15:26:59;18.80;79.50
9437;DHT22;4757;59.334;18.034;2023-05-10T15:29:27;19.20;79.10
9437;DHT22;4757;59.334;18.034;2023-05-10T15:31:54;19.20;79.30
9437;DHT22;4757;59.334;18.034;2023-05-10T15:34:21;19.10;79.00
9437;DHT22;4757;59.334;18.034;2023-05-10T15:36:48;18.90;79.80
9437;DHT22;4757;59.334;18.034;2023-05-10T15:39:15;18.50;80.60
9437;DHT22;4757;59.334;18.034;2023-05-10T15:41:42;18.30;80.40
9437;DHT22;4757;59.334;18.034;2023-05-10T15:44:09;18.10;80.10
9437;DHT22;4757;59.334;18.034;2023-05-10T15:46:36;18.10;80.20
9437;DHT22;4757;59.334;18.034;2023-05-10T15:49:04;18.70;79.20
9437;DHT22;4757;59.334;18.034;2023-05-10T15:51:32;18.50;79.80
9437;DHT22;4757;59.334;18.034;2023-05-10T15:54:02;18.30;81.10
9437;DHT22;4757;59.334;18.034;2023-05-10T15:56:33;18.10;80.10
9437;DHT22;4757;59.334;18.034;2023-05-10T15:59:01;18.50;79.30
9437;DHT22;4757;59.334;18.034;2023-05-10T16:01:28;18.50;80.00
9437;DHT22;4757;59.334;18.034;2023-05-10T16:03:56;18.50;79.80
9437;DHT22;4757;59.334;18.034;2023-05-10T16:06:23;18.70;80.50
9437;DHT22;4757;59.334;18.034;2023-05-10T16:08:50;18.40;79.80
9437;DHT22;4757;59.334;18.034;2023-05-10T16:11:20;18.80;80.70
9437;DHT22;4757;59.334;18.034;2023-05-10T16:13:47;18.20;80.30
9437;DHT22;4757;59.334;18.034;2023-05-10T16:16:16;17.40;81.40
9437;DHT22;4757;59.334;18.034;2023-05-10T16:18:43;17.40;81.00
9437;DHT22;4757;59.334;18.034;2023-05-10T16:21:10;17.70;81.60
9437;DHT22;4757;59.334;18.034;2023-05-10T16:23:38;17.40;81.10
9437;DHT22;4757;59.334;18.034;2023-05-10T16:26:05;17.40;81.00
9437;DHT22;4757;59.334;18.034;2023-05-10T16:28:35;17.20;81.10
9437;DHT22;4757;59.334;18.034;2023-05-10T16:31:03;17.50;80.90
9437;DHT22;4757;59.334;18.034;2023-05-10T16:33:30;17.30;80.70
9437;DHT22;4757;59.334;18.034;2023-05-10T16:35:57;16.80;81.60
9437;DHT22;4757;59.334;18.034;2023-05-10T16:38:24;17.00;81.60
9437;DHT22;4757;59.334;18.034;2023-05-10T16:40:51;16.80;82.10
9437;DHT22;4757;59.334;18.034;2023-05-10T16:43:18;17.00;81.70